createdAt,value
2018-02-17T00:04:41.114Z,-0.57
2018-02-17T00:14:41.100Z,-0.81
2018-02-17T00:24:41.144Z,-0.89
2018-02-17T00:34:41.122Z,-0.86
2018-02-17T00:44:41.186Z,-0.69
2018-02-17T00:54:41.148Z,-0.75
2018-02-17T01:04:41.125Z,-0.45
2018-02-17T01:14:41.157Z,-0.45
2018-02-17T01:24:41.168Z,-0.41
2018-02-17T01:34:41.205Z,-0.29
2018-02-17T01:44:41.189Z,-0.29
2018-02-17T01:54:41.260Z,-0.29
2018-02-17T02:04:41.234Z,-0.34
2018-02-17T02:14:41.262Z,-0.41
2018-02-17T02:24:41.267Z,-0.36
2018-02-17T02:34:41.280Z,-0.3
2018-02-17T02:44:41.253Z,-0.36
2018-02-17T02:54:41.348Z,-0.47
2018-02-17T03:04:41.289Z,-0.52
2018-02-17T03:14:41.267Z,-0.65
2018-02-17T03:24:41.309Z,-0.65
2018-02-17T03:34:41.293Z,-0.54
2018-02-17T03:44:41.332Z,-0.75
2018-02-17T03:54:41.293Z,-0.65
2018-02-17T04:04:41.360Z,-0.63
2018-02-17T04:14:41.352Z,-0.77
2018-02-17T04:24:41.285Z,-0.68
2018-02-17T04:34:41.345Z,-0.6
2018-02-17T04:44:41.283Z,-0.52
2018-02-17T04:54:41.323Z,-0.63
2018-02-17T05:04:41.314Z,-0.72
2018-02-17T05:14:41.383Z,-0.66
2018-02-17T05:24:41.351Z,-0.69
2018-02-17T05:34:41.389Z,-0.81
2018-02-17T05:44:41.350Z,-0.75
2018-02-17T05:54:41.412Z,-0.66
2018-02-17T06:04:41.343Z,-0.68
2018-02-17T06:14:41.374Z,-0.66
2018-02-17T06:24:41.387Z,-0.83
2018-02-17T06:34:41.374Z,-0.73
2018-02-17T06:44:41.407Z,-0.47
2018-02-17T06:54:41.411Z,-0.42
2018-02-17T07:04:41.495Z,-0.24
2018-02-17T07:14:41.386Z,-0.18
2018-02-17T07:24:41.460Z,-0.08
2018-02-17T07:34:41.436Z,0.27
2018-02-17T07:44:41.367Z,0.42
2018-02-17T07:54:41.421Z,0.71
2018-02-17T08:04:41.396Z,0.94
2018-02-17T08:14:41.380Z,1.16
2018-02-17T08:24:41.427Z,1.43
2018-02-17T08:34:41.500Z,1.76
2018-02-17T08:44:41.433Z,2.12
2018-02-17T08:54:41.540Z,2.26
2018-02-17T09:04:41.481Z,2.73
2018-02-17T09:14:41.523Z,3.07
2018-02-17T09:24:41.503Z,3.34
2018-02-17T09:34:41.589Z,3.65
2018-02-17T09:44:41.525Z,3.72
2018-02-17T09:54:41.511Z,3.7
2018-02-17T10:04:41.535Z,3.96
2018-02-17T10:14:41.606Z,4.44
2018-02-17T10:24:41.592Z,4.58
2018-02-17T10:34:41.541Z,4.73
2018-02-17T10:44:41.642Z,4.73
2018-02-17T10:54:41.559Z,4.94
2018-02-17T11:04:41.629Z,5.07
2018-02-17T11:14:41.614Z,5.4
2018-02-17T11:24:41.674Z,5.6
2018-02-17T11:34:41.612Z,5.56
2018-02-17T11:44:41.987Z,5.56
2018-02-17T11:54:41.617Z,5.7
2018-02-17T12:04:41.599Z,5.91
2018-02-17T12:14:41.703Z,6.35
2018-02-17T12:24:41.611Z,6.54
2018-02-17T12:34:41.679Z,6.83
2018-02-17T12:44:41.634Z,6.89
2018-02-17T12:54:42.775Z,7.16
2018-02-17T13:04:41.666Z,7.47
2018-02-17T13:14:41.744Z,7.71
2018-02-17T13:24:41.702Z,7.85
2018-02-17T13:34:41.808Z,8
2018-02-17T13:44:41.730Z,7.74
2018-02-17T13:54:41.802Z,7.71
2018-02-17T14:04:41.736Z,7.77
2018-02-17T14:14:41.819Z,7.63
2018-02-17T14:24:42.049Z,7.79
2018-02-17T14:34:41.827Z,7.52
2018-02-17T14:44:41.767Z,7.4
2018-02-17T14:54:41.720Z,7.35
2018-02-17T15:04:41.826Z,7.05
2018-02-17T15:14:41.817Z,6.95
2018-02-17T15:24:41.848Z,6.68
2018-02-17T15:34:41.905Z,6.43
2018-02-17T15:44:41.880Z,6.16
2018-02-17T15:54:42.383Z,5.86
2018-02-17T16:04:41.953Z,5.73
2018-02-17T16:14:41.859Z,5.5
2018-02-17T16:24:41.890Z,5.12
2018-02-17T16:34:41.905Z,5.01
2018-02-17T16:44:41.944Z,4.65
2018-02-17T16:54:41.880Z,3.98
2018-02-17T17:04:42.080Z,3.75
2018-02-17T17:14:41.862Z,3.05
2018-02-17T17:24:41.870Z,2.79
2018-02-17T17:34:41.932Z,2.28
2018-02-17T17:44:41.884Z,1.98
2018-02-17T17:54:42.012Z,1.72
2018-02-17T18:04:41.958Z,1.47
2018-02-17T18:14:41.951Z,1.33
2018-02-17T18:24:42.115Z,1.62
2018-02-17T18:34:42.152Z,1.82
2018-02-17T18:44:42.031Z,1.91
2018-02-17T18:54:42.238Z,1.71
2018-02-17T19:04:41.989Z,1.43
2018-02-17T19:14:42.059Z,1.12
2018-02-17T19:24:42.031Z,0.86
2018-02-17T19:34:41.944Z,0.78
2018-02-17T19:44:42.012Z,0.6
2018-02-17T19:54:42.009Z,0.52
2018-02-17T20:04:42.059Z,0.34
2018-02-17T20:14:41.985Z,0.31
2018-02-17T20:24:42.062Z,0.21
2018-02-17T20:34:42.009Z,0.13
2018-02-17T20:44:42.056Z,0.16
2018-02-17T20:54:42.114Z,0.05
2018-02-17T21:04:51.101Z,-0.16
2018-02-17T21:14:47.958Z,-0.01
2018-02-17T21:24:44.143Z,-0.15
2018-02-17T21:34:43.078Z,-0.05
2018-02-17T21:44:49.502Z,0.03
2018-02-17T21:54:44.090Z,-0.04
2018-02-17T22:04:43.187Z,-0.24
2018-02-17T22:14:42.083Z,-0.26
2018-02-17T22:24:42.165Z,-0.59
2018-02-17T22:34:44.182Z,-0.68
2018-02-17T22:44:43.264Z,-0.78
2018-02-17T22:54:46.017Z,-0.97
2018-02-17T23:04:42.208Z,-1.02
2018-02-17T23:14:44.183Z,-1.03
2018-02-17T23:24:43.158Z,-1.03
2018-02-17T23:34:45.329Z,-1.23
2018-02-17T23:44:44.270Z,-1.42
2018-02-17T23:54:42.196Z,-1.46
